createdAt,value
2023-03-06T00:00:29.722Z,98369.47
2023-03-06T00:02:57.215Z,98372.75
2023-03-06T00:05:24.201Z,98380.22
2023-03-06T00:07:50.785Z,98370.06
2023-03-06T00:10:23.242Z,98377.53
2023-03-06T00:12:54.755Z,98379.25
2023-03-06T00:15:21.930Z,98374.00
2023-03-06T00:17:48.581Z,98373.63
2023-03-06T00:20:15.713Z,98371.03
2023-03-06T00:22:42.540Z,98375.03
2023-03-06T00:25:13.468Z,98377.47
2023-03-06T00:27:40.141Z,98369.59
2023-03-06T00:30:11.876Z,98373.06
2023-03-06T00:32:38.449Z,98357.13
2023-03-06T00:35:06.184Z,98370.66
2023-03-06T00:37:32.837Z,98364.69
2023-03-06T00:39:59.467Z,98355.28
2023-03-06T00:42:26.063Z,98353.56
2023-03-06T00:44:52.754Z,98359.59
2023-03-06T00:47:19.361Z,98352.94
2023-03-06T00:49:46.166Z,98352.94
2023-03-06T00:52:13.491Z,98348.81
2023-03-06T00:54:40.659Z,98354.63
2023-03-06T00:57:07.647Z,98350.50
2023-03-06T00:59:34.273Z,98345.47
2023-03-06T01:02:00.849Z,98343.88
2023-03-06T01:04:27.411Z,98342.16
2023-03-06T01:06:54.069Z,98336.22
2023-03-06T01:09:21.143Z,98331.16
2023-03-06T01:11:47.661Z,98328.69
2023-03-06T01:14:14.240Z,98318.63
2023-03-06T01:16:40.969Z,98328.66
2023-03-06T01:19:07.576Z,98324.50
2023-03-06T01:21:34.082Z,98322.03
2023-03-06T01:24:00.591Z,98317.94
2023-03-06T01:26:27.147Z,98318.78
2023-03-06T01:28:53.720Z,98313.81
2023-03-06T01:31:20.266Z,98304.41
2023-03-06T01:33:46.774Z,98301.97
2023-03-06T01:36:13.399Z,98310.56
2023-03-06T01:38:39.972Z,98309.66
2023-03-06T01:41:07.037Z,98308.84
2023-03-06T01:43:34.778Z,98302.88
2023-03-06T01:46:23.026Z,98309.69
2023-03-06T01:48:54.437Z,98301.28
2023-03-06T01:51:22.030Z,98309.66
2023-03-06T01:53:50.963Z,98301.03
2023-03-06T01:56:17.971Z,98304.66
2023-03-06T01:58:45.051Z,98306.19
2023-03-06T02:01:14.519Z,98303.69
2023-03-06T02:03:42.678Z,98294.34
2023-03-06T02:06:09.317Z,98303.81
2023-03-06T02:08:35.890Z,98297.84
2023-03-06T02:11:15.157Z,98301.22
2023-03-06T02:13:42.890Z,98297.16
2023-03-06T02:16:10.841Z,98297.16
2023-03-06T02:18:38.220Z,98289.50
2023-03-06T02:21:08.589Z,98290.28
2023-03-06T02:23:48.066Z,98285.91
2023-03-06T02:26:16.106Z,98287.66
2023-03-06T02:28:43.062Z,98278.06
2023-03-06T02:31:21.676Z,98283.41
2023-03-06T02:34:03.864Z,98280.78
2023-03-06T02:36:33.389Z,98281.72
2023-03-06T02:39:00.113Z,98277.34
2023-03-06T02:41:26.921Z,98279.00
2023-03-06T02:43:53.509Z,98290.06
2023-03-06T02:46:20.590Z,98281.44
2023-03-06T02:48:47.242Z,98284.88
2023-03-06T02:51:13.939Z,98284.03
2023-03-06T02:53:40.461Z,98290.78
2023-03-06T02:56:07.496Z,98279.59
2023-03-06T02:58:34.117Z,98293.25
2023-03-06T03:01:00.648Z,98287.47
2023-03-06T03:03:27.254Z,98286.59
2023-03-06T03:05:53.830Z,98287.41
2023-03-06T03:08:20.416Z,98291.63
2023-03-06T03:10:46.954Z,98291.63
2023-03-06T03:13:13.571Z,98289.13
2023-03-06T03:15:41.222Z,98284.03
2023-03-06T03:18:07.778Z,98288.34
2023-03-06T03:20:34.327Z,98287.47
2023-03-06T03:23:00.844Z,98291.63
2023-03-06T03:25:27.437Z,98284.88
2023-03-06T03:27:54.226Z,98290.19
2023-03-06T03:30:20.884Z,98291.81
2023-03-06T03:32:47.414Z,98294.41
2023-03-06T03:35:14.138Z,98286.78
2023-03-06T03:37:40.698Z,98294.41
2023-03-06T03:40:07.888Z,98303.69
2023-03-06T03:42:34.504Z,98302.03
2023-03-06T03:45:01.335Z,98303.56
2023-03-06T03:47:27.889Z,98302.78
2023-03-06T03:49:54.462Z,98306.16
2023-03-06T03:52:21.059Z,98305.97
2023-03-06T03:54:47.610Z,98303.47
2023-03-06T03:57:14.238Z,98311.00
2023-03-06T03:59:40.849Z,98299.28
2023-03-06T04:02:07.456Z,98315.28
2023-03-06T04:04:34.150Z,98303.47
2023-03-06T04:07:01.774Z,98302.66
2023-03-06T04:09:28.287Z,98304.41
2023-03-06T04:11:54.989Z,98317.91
2023-03-06T04:14:21.635Z,98303.47
2023-03-06T04:16:48.203Z,98312.84
2023-03-06T04:19:14.803Z,98317.94
2023-03-06T04:21:41.370Z,98322.13
2023-03-06T04:24:08.310Z,98313.63
2023-03-06T04:26:36.093Z,98316.09
2023-03-06T04:29:02.756Z,98318.63
2023-03-06T04:31:29.315Z,98321.13
2023-03-06T04:33:55.861Z,98329.50
2023-03-06T04:36:28.582Z,98320.28
2023-03-06T04:38:55.282Z,98326.22
2023-03-06T04:41:22.230Z,98327.97
2023-03-06T04:43:49.078Z,98328.88
2023-03-06T04:46:16.023Z,98333.06
2023-03-06T04:48:42.965Z,98332.19
2023-03-06T04:51:14.316Z,98331.53
2023-03-06T04:53:40.949Z,98335.06
2023-03-06T04:56:07.859Z,98336.75
2023-03-06T04:58:34.388Z,98332.56
2023-03-06T05:01:00.994Z,98335.19
2023-03-06T05:03:27.690Z,98341.97
2023-03-06T05:05:54.210Z,98336.13
2023-03-06T05:08:20.871Z,98341.34
2023-03-06T05:10:58.813Z,98346.44
2023-03-06T05:13:26.774Z,98337.97
2023-03-06T05:15:53.416Z,98347.38
2023-03-06T05:18:20.738Z,98347.38
2023-03-06T05:20:47.296Z,98343.78
2023-03-06T05:23:13.823Z,98349.81
2023-03-06T05:25:40.891Z,98356.53
2023-03-06T05:28:08.046Z,98361.59
2023-03-06T05:30:35.092Z,98364.38
2023-03-06T05:33:01.650Z,98357.00
2023-03-06T05:35:28.261Z,98364.84
2023-03-06T05:37:54.997Z,98364.25
2023-03-06T05:40:21.594Z,98366.69
2023-03-06T05:42:48.256Z,98365.63
2023-03-06T05:45:15.008Z,98368.38
2023-03-06T05:47:41.666Z,98369.97
2023-03-06T05:50:10.420Z,98369.91
2023-03-06T05:52:39.542Z,98358.66
2023-03-06T05:55:07.423Z,98375.44
2023-03-06T05:57:34.225Z,98382.06
2023-03-06T06:00:00.896Z,98388.88
2023-03-06T06:02:27.527Z,98399.81
2023-03-06T06:04:54.062Z,98400.59
2023-03-06T06:07:20.661Z,98408.78
2023-03-06T06:09:47.263Z,98407.78
2023-03-06T06:12:15.522Z,98410.94
2023-03-06T06:14:42.023Z,98409.84
2023-03-06T06:17:08.676Z,98415.78
2023-03-06T06:19:35.380Z,98423.41
2023-03-06T06:22:03.817Z,98424.44
2023-03-06T06:24:31.065Z,98418.34
2023-03-06T06:26:58.898Z,98427.94
2023-03-06T06:29:27.645Z,98430.66
2023-03-06T06:31:54.734Z,98436.13
2023-03-06T06:34:22.885Z,98445.03
2023-03-06T06:36:52.165Z,98443.88
2023-03-06T06:39:21.371Z,98441.19
2023-03-06T06:42:02.617Z,98451.00
2023-03-06T06:44:37.012Z,98451.66
2023-03-06T06:47:24.111Z,98463.47
2023-03-06T06:49:55.785Z,98461.09
2023-03-06T06:52:23.391Z,98462.09
2023-03-06T06:54:50.058Z,98462.03
2023-03-06T06:57:17.393Z,98476.25
2023-03-06T06:59:44.088Z,98468.50
2023-03-06T07:02:15.813Z,98474.53
2023-03-06T07:04:56.514Z,98473.69
2023-03-06T07:07:29.708Z,98474.44
2023-03-06T07:09:56.657Z,98477.78
2023-03-06T07:12:23.182Z,98486.22
2023-03-06T07:14:49.753Z,98488.06
2023-03-06T07:17:16.527Z,98489.22
2023-03-06T07:19:43.090Z,98482.41
2023-03-06T07:22:09.905Z,98491.00
2023-03-06T07:24:36.483Z,98483.44
2023-03-06T07:27:03.078Z,98496.34
2023-03-06T07:29:29.683Z,98502.41
2023-03-06T07:31:56.341Z,98503.06
2023-03-06T07:34:22.936Z,98498.00
2023-03-06T07:36:50.855Z,98515.03
2023-03-06T07:39:17.425Z,98507.66
2023-03-06T07:41:44.222Z,98507.84
2023-03-06T07:44:10.818Z,98510.41
2023-03-06T07:46:37.432Z,98503.97
2023-03-06T07:49:04.201Z,98510.13
2023-03-06T07:51:30.736Z,98514.44
2023-03-06T07:53:57.335Z,98509.47
2023-03-06T07:56:23.854Z,98512.94
2023-03-06T07:58:50.377Z,98514.25
2023-03-06T08:01:19.904Z,98518.91
2023-03-06T08:03:47.333Z,98518.66
2023-03-06T08:06:19.613Z,98499.56
2023-03-06T08:08:47.846Z,98512.13
2023-03-06T08:11:16.480Z,98513.94
2023-03-06T08:13:43.970Z,98507.91
2023-03-06T08:16:11.369Z,98510.38
2023-03-06T08:18:39.776Z,98521.13
2023-03-06T08:21:13.225Z,98521.31
2023-03-06T08:23:40.266Z,98521.41
2023-03-06T08:26:10.454Z,98531.97
2023-03-06T08:28:37.058Z,98528.66
2023-03-06T08:31:18.707Z,98536.84
2023-03-06T08:33:45.330Z,98529.66
2023-03-06T08:36:11.889Z,98537.81
2023-03-06T08:38:38.418Z,98552.97
2023-03-06T08:41:05.196Z,98536.56
2023-03-06T08:43:31.856Z,98540.53
2023-03-06T08:45:59.072Z,98535.78
2023-03-06T08:48:25.923Z,98543.72
2023-03-06T08:50:52.653Z,98546.59
2023-03-06T08:53:19.830Z,98550.78
2023-03-06T08:55:46.734Z,98546.94
2023-03-06T08:58:13.401Z,98552.06
2023-03-06T09:00:40.081Z,98556.72
2023-03-06T09:03:06.590Z,98558.28
2023-03-06T09:05:33.839Z,98564.34
2023-03-06T09:08:00.361Z,98567.56
2023-03-06T09:10:27.490Z,98563.72
2023-03-06T09:12:55.373Z,98568.78
2023-03-06T09:15:22.998Z,98562.50
2023-03-06T09:17:50.808Z,98572.31
2023-03-06T09:20:18.142Z,98572.38
2023-03-06T09:22:45.781Z,98572.31
2023-03-06T09:25:20.392Z,98569.69
2023-03-06T09:27:51.374Z,98573.22
2023-03-06T09:30:22.304Z,98571.97
2023-03-06T09:32:48.931Z,98578.78
2023-03-06T09:35:15.517Z,98585.41
2023-03-06T09:37:42.038Z,98575.28
2023-03-06T09:40:18.068Z,98579.75
2023-03-06T09:42:44.483Z,98575.50
2023-03-06T09:45:13.056Z,98574.41
2023-03-06T09:47:53.037Z,98573.44
2023-03-06T09:50:29.166Z,98583.44
2023-03-06T09:52:58.696Z,98581.47
2023-03-06T09:55:28.870Z,98578.59
2023-03-06T09:58:23.126Z,98579.16
2023-03-06T10:01:17.172Z,98579.91
2023-03-06T10:04:05.300Z,98573.16
2023-03-06T10:06:45.678Z,98566.88
2023-03-06T10:09:22.617Z,98577.03
2023-03-06T10:12:00.648Z,98574.41
2023-03-06T10:15:21.084Z,98569.44
2023-03-06T10:17:48.095Z,98575.63
2023-03-06T10:20:33.696Z,98562.75
2023-03-06T10:23:42.396Z,98571.81
2023-03-06T10:26:32.882Z,98570.31
2023-03-06T10:29:19.681Z,98572.00
2023-03-06T10:31:56.089Z,98578.50
2023-03-06T10:34:37.518Z,98575.03
2023-03-06T10:37:20.904Z,98565.00
2023-03-06T10:39:54.848Z,98569.53
2023-03-06T10:42:21.430Z,98569.50
2023-03-06T10:44:48.045Z,98570.06
2023-03-06T10:47:32.421Z,98572.72
2023-03-06T10:50:06.650Z,98576.06
2023-03-06T10:52:35.901Z,98573.72
2023-03-06T10:55:30.292Z,98564.97
2023-03-06T10:57:57.124Z,98565.94
2023-03-06T11:00:35.921Z,98572.56
2023-03-06T11:03:23.929Z,98566.81
2023-03-06T11:06:06.740Z,98558.50
2023-03-06T11:08:33.952Z,98557.00
2023-03-06T11:11:36.495Z,98558.69
2023-03-06T11:14:15.129Z,98559.28
2023-03-06T11:16:53.252Z,98563.97
2023-03-06T11:19:26.564Z,98560.44
2023-03-06T11:22:19.787Z,98563.50
2023-03-06T11:24:50.493Z,98559.69
2023-03-06T11:27:30.880Z,98548.47
2023-03-06T11:30:00.076Z,98543.47
2023-03-06T11:32:34.752Z,98538.84
2023-03-06T11:35:13.774Z,98555.41
2023-03-06T11:37:49.503Z,98553.50
2023-03-06T11:40:20.049Z,98553.91
2023-03-06T11:43:23.351Z,98552.47
2023-03-06T11:46:21.541Z,98554.44
2023-03-06T11:49:34.877Z,98547.56
2023-03-06T11:52:09.047Z,98550.19
2023-03-06T11:54:36.081Z,98549.81
2023-03-06T11:57:12.511Z,98550.69
2023-03-06T11:59:45.267Z,98545.66
2023-03-06T12:02:36.168Z,98542.09
2023-03-06T12:05:26.867Z,98544.38
2023-03-06T12:08:08.853Z,98547.13
2023-03-06T12:10:38.166Z,98561.53
2023-03-06T12:13:38.193Z,98549.69
2023-03-06T12:16:30.950Z,98537.78
2023-03-06T12:19:04.775Z,98534.03
2023-03-06T12:22:01.273Z,98539.00
2023-03-06T12:24:42.857Z,98544.63
2023-03-06T12:27:35.421Z,98536.50
2023-03-06T12:30:44.774Z,98540.34
2023-03-06T12:33:14.194Z,98531.66
2023-03-06T12:36:01.993Z,98534.44
2023-03-06T12:38:51.407Z,98537.38
2023-03-06T12:41:36.241Z,98541.06
2023-03-06T12:44:27.513Z,98542.19
2023-03-06T12:47:01.884Z,98531.81
2023-03-06T12:49:32.859Z,98540.53
2023-03-06T12:52:02.173Z,98543.25
2023-03-06T12:54:35.051Z,98537.44
2023-03-06T12:57:01.953Z,98539.16
2023-03-06T12:59:48.004Z,98546.75
2023-03-06T13:02:46.562Z,98545.91
2023-03-06T13:05:33.148Z,98549.47
2023-03-06T13:08:14.005Z,98536.72
2023-03-06T13:10:43.541Z,98534.69
2023-03-06T13:13:33.408Z,98536.97
2023-03-06T13:16:18.450Z,98522.75
2023-03-06T13:18:50.821Z,98536.16
2023-03-06T13:21:42.354Z,98539.88
2023-03-06T13:24:21.381Z,98539.88
2023-03-06T13:26:52.818Z,98534.97
2023-03-06T13:29:37.622Z,98540.44
2023-03-06T13:32:04.356Z,98531.16
2023-03-06T13:34:48.108Z,98544.16
2023-03-06T13:37:18.444Z,98542.38
2023-03-06T13:39:54.059Z,98547.94
2023-03-06T13:42:36.805Z,98549.44
2023-03-06T13:45:22.784Z,98534.72
2023-03-06T13:50:44.311Z,98543.31
2023-03-06T13:53:29.348Z,98549.72
2023-03-06T13:56:21.695Z,98544.91
2023-03-06T13:59:06.319Z,98547.03
2023-03-06T14:02:01.971Z,98548.41
2023-03-06T14:04:36.974Z,98539.22
2023-03-06T14:07:20.350Z,98546.19
2023-03-06T14:09:50.508Z,98550.88
2023-03-06T14:12:28.126Z,98553.78
2023-03-06T14:14:57.916Z,98565.16
2023-03-06T14:17:33.680Z,98551.75
2023-03-06T14:20:05.718Z,98560.66
2023-03-06T14:22:32.231Z,98562.91
2023-03-06T14:25:07.948Z,98569.34
2023-03-06T14:27:54.985Z,98564.84
2023-03-06T14:30:26.054Z,98573.59
2023-03-06T14:32:55.077Z,98577.34
2023-03-06T14:35:28.648Z,98564.97
2023-03-06T14:38:06.633Z,98569.75
2023-03-06T14:40:42.611Z,98559.22
2023-03-06T14:43:20.248Z,98561.19
2023-03-06T14:45:55.111Z,98564.63
2023-03-06T14:48:22.874Z,98565.22
2023-03-06T14:50:55.019Z,98570.84
2023-03-06T14:53:29.085Z,98575.31
2023-03-06T14:56:01.764Z,98564.09
2023-03-06T14:58:33.383Z,98575.72
2023-03-06T15:01:05.074Z,98575.59
2023-03-06T15:03:41.317Z,98571.03
2023-03-06T15:06:12.045Z,98569.53
2023-03-06T15:08:40.226Z,98580.50
2023-03-06T15:11:07.404Z,98578.25
2023-03-06T15:13:34.455Z,98584.41
2023-03-06T15:16:12.933Z,98585.53
2023-03-06T15:18:55.735Z,98584.91
2023-03-06T15:21:23.923Z,98587.69
2023-03-06T15:23:52.860Z,98591.56
2023-03-06T15:26:32.967Z,98593.50
2023-03-06T15:29:09.629Z,98599.94
2023-03-06T15:31:39.087Z,98611.44
2023-03-06T15:34:09.218Z,98602.50
2023-03-06T15:36:36.723Z,98611.44
2023-03-06T15:39:26.070Z,98605.28
2023-03-06T15:42:24.825Z,98610.75
2023-03-06T15:44:54.053Z,98613.00
2023-03-06T15:47:21.797Z,98609.28
2023-03-06T15:49:53.050Z,98611.38
2023-03-06T15:52:21.647Z,98613.56
2023-03-06T15:54:48.324Z,98618.38
2023-03-06T15:57:23.144Z,98612.19
2023-03-06T15:59:50.507Z,98610.38
2023-03-06T16:02:22.262Z,98608.44
2023-03-06T16:04:49.549Z,98602.38
2023-03-06T16:07:16.285Z,98611.63
2023-03-06T16:09:43.215Z,98613.19
2023-03-06T16:12:18.760Z,98607.81
2023-03-06T16:14:47.333Z,98615.13
2023-03-06T16:17:14.418Z,98618.25
2023-03-06T16:19:41.678Z,98607.75
2023-03-06T16:22:08.448Z,98619.34
2023-03-06T16:24:35.153Z,98620.84
2023-03-06T16:27:02.570Z,98619.13
2023-03-06T16:29:30.559Z,98623.03
2023-03-06T16:31:58.792Z,98622.13
2023-03-06T16:34:25.633Z,98627.75
2023-03-06T16:36:52.290Z,98626.69
2023-03-06T16:39:21.412Z,98630.78
2023-03-06T16:41:49.481Z,98633.13
2023-03-06T16:44:16.356Z,98643.16
2023-03-06T16:46:45.822Z,98639.56
2023-03-06T16:49:24.087Z,98645.38
2023-03-06T16:51:51.601Z,98638.44
2023-03-06T16:54:18.728Z,98634.91
2023-03-06T16:56:45.440Z,98649.19
2023-03-06T16:59:12.584Z,98647.31
2023-03-06T17:01:42.899Z,98646.38
2023-03-06T17:04:09.674Z,98645.38
2023-03-06T17:06:36.240Z,98641.94
2023-03-06T17:09:02.835Z,98655.34
2023-03-06T17:11:29.703Z,98646.88
2023-03-06T17:13:56.305Z,98642.50
2023-03-06T17:16:23.009Z,98641.69
2023-03-06T17:18:49.862Z,98651.56
2023-03-06T17:21:18.410Z,98647.25
2023-03-06T17:23:45.744Z,98645.56
2023-03-06T17:26:14.911Z,98646.38
2023-03-06T17:28:41.919Z,98636.16
2023-03-06T17:31:34.950Z,98636.97
2023-03-06T17:34:01.487Z,98646.06
2023-03-06T17:36:29.308Z,98634.84
2023-03-06T17:39:00.809Z,98630.44
2023-03-06T17:41:27.977Z,98628.63
2023-03-06T17:43:58.301Z,98633.81
2023-03-06T17:46:25.725Z,98631.97
2023-03-06T17:48:52.315Z,98639.63
2023-03-06T17:51:18.889Z,98636.06
2023-03-06T17:53:45.486Z,98633.41
2023-03-06T17:56:13.888Z,98642.59
2023-03-06T17:58:40.420Z,98637.25
2023-03-06T18:01:15.106Z,98635.72
2023-03-06T18:03:46.667Z,98643.28
2023-03-06T18:06:13.980Z,98642.28
2023-03-06T18:08:41.092Z,98640.44
2023-03-06T18:11:09.935Z,98646.34
2023-03-06T18:13:39.385Z,98649.53
2023-03-06T18:16:06.869Z,98642.81
2023-03-06T18:18:33.887Z,98651.09
2023-03-06T18:21:09.173Z,98645.97
2023-03-06T18:23:36.784Z,98645.97
2023-03-06T18:26:11.695Z,98645.97
2023-03-06T18:28:42.636Z,98640.78
2023-03-06T18:31:21.405Z,98643.34
2023-03-06T18:33:49.157Z,98647.34
2023-03-06T18:36:16.869Z,98651.53
2023-03-06T18:38:45.497Z,98653.13
2023-03-06T18:41:13.086Z,98651.34
2023-03-06T18:43:39.799Z,98661.28
2023-03-06T18:46:06.787Z,98655.25
2023-03-06T18:48:33.389Z,98662.00
2023-03-06T18:51:07.669Z,98661.88
2023-03-06T18:53:35.291Z,98658.44
2023-03-06T18:56:02.604Z,98666.88
2023-03-06T18:58:29.550Z,98661.78
2023-03-06T19:00:58.329Z,98654.72
2023-03-06T19:03:25.799Z,98654.88
2023-03-06T19:05:52.444Z,98657.44
2023-03-06T19:08:19.016Z,98655.66
2023-03-06T19:10:46.270Z,98660.97
2023-03-06T19:13:13.612Z,98659.34
2023-03-06T19:15:48.565Z,98656.84
2023-03-06T19:18:18.108Z,98655.84
2023-03-06T19:20:50.343Z,98652.34
2023-03-06T19:23:16.902Z,98658.16
2023-03-06T19:25:43.515Z,98662.53
2023-03-06T19:28:10.158Z,98659.31
2023-03-06T19:30:40.101Z,98651.78
2023-03-06T19:33:06.676Z,98656.78
2023-03-06T19:35:35.058Z,98660.16
2023-03-06T19:38:01.597Z,98657.72
2023-03-06T19:40:28.167Z,98663.72
2023-03-06T19:42:55.711Z,98649.53
2023-03-06T19:45:22.257Z,98645.13
2023-03-06T19:47:50.234Z,98652.94
2023-03-06T19:50:16.813Z,98656.16
2023-03-06T19:52:43.330Z,98647.97
2023-03-06T19:55:10.603Z,98646.97
2023-03-06T19:57:37.145Z,98642.13
2023-03-06T20:00:04.863Z,98631.94
2023-03-06T20:02:32.598Z,98645.50
2023-03-06T20:04:59.182Z,98647.31
2023-03-06T20:07:25.787Z,98639.84
2023-03-06T20:09:52.454Z,98634.94
2023-03-06T20:12:18.989Z,98624.84
2023-03-06T20:14:46.234Z,98633.34
2023-03-06T20:17:12.811Z,98627.38
2023-03-06T20:19:39.559Z,98627.13
2023-03-06T20:22:06.086Z,98631.94
2023-03-06T20:24:32.607Z,98634.22
2023-03-06T20:26:59.496Z,98633.38
2023-03-06T20:29:28.134Z,98629.91
2023-03-06T20:31:57.927Z,98626.56
2023-03-06T20:34:25.220Z,98610.34
2023-03-06T20:36:51.839Z,98617.97
2023-03-06T20:39:24.034Z,98617.97
2023-03-06T20:41:50.602Z,98612.06
2023-03-06T20:44:19.610Z,98607.88
2023-03-06T20:46:47.384Z,98606.31
2023-03-06T20:49:14.690Z,98606.69
2023-03-06T20:51:41.799Z,98591.53
2023-03-06T20:54:11.027Z,98606.06
2023-03-06T20:56:39.565Z,98607.84
2023-03-06T20:59:07.968Z,98601.34
2023-03-06T21:01:38.399Z,98588.72
2023-03-06T21:04:04.998Z,98597.38
2023-03-06T21:06:32.322Z,98594.03
2023-03-06T21:09:00.559Z,98585.66
2023-03-06T21:11:27.909Z,98583.09
2023-03-06T21:13:55.018Z,98577.19
2023-03-06T21:16:24.646Z,98574.72
2023-03-06T21:18:53.420Z,98583.22
2023-03-06T21:21:22.614Z,98574.75
2023-03-06T21:23:49.424Z,98573.84
2023-03-06T21:26:19.612Z,98561.78
2023-03-06T21:28:46.618Z,98565.34
2023-03-06T21:31:15.181Z,98567.09
2023-03-06T21:33:42.024Z,98562.97
2023-03-06T21:36:09.379Z,98564.03
2023-03-06T21:38:36.684Z,98557.38
2023-03-06T21:41:14.528Z,98562.53
2023-03-06T21:43:41.812Z,98552.44
2023-03-06T21:46:09.082Z,98555.88
2023-03-06T21:48:36.175Z,98547.53
2023-03-06T21:51:15.804Z,98549.25
2023-03-06T21:53:43.680Z,98552.69
2023-03-06T21:56:11.152Z,98540.88
2023-03-06T21:58:37.819Z,98551.69
2023-03-06T22:01:17.998Z,98559.38
2023-03-06T22:03:44.592Z,98551.91
2023-03-06T22:06:17.410Z,98555.28
2023-03-06T22:08:45.301Z,98552.81
2023-03-06T22:11:14.618Z,98558.72
2023-03-06T22:13:41.716Z,98545.91
2023-03-06T22:16:08.824Z,98548.56
2023-03-06T22:18:35.778Z,98539.28
2023-03-06T22:21:10.074Z,98531.75
2023-03-06T22:23:37.077Z,98544.56
2023-03-06T22:26:05.957Z,98546.53
2023-03-06T22:28:33.016Z,98542.47
2023-03-06T22:31:17.673Z,98546.69
2023-03-06T22:33:44.883Z,98545.84
2023-03-06T22:36:14.180Z,98535.75
2023-03-06T22:38:42.926Z,98545.03
2023-03-06T22:41:10.895Z,98535.81
2023-03-06T22:43:37.911Z,98533.09
2023-03-06T22:46:06.949Z,98535.81
2023-03-06T22:48:33.585Z,98534.03
2023-03-06T22:51:15.284Z,98533.22
2023-03-06T22:53:42.294Z,98523.84
2023-03-06T22:56:11.925Z,98516.22
2023-03-06T22:58:39.321Z,98522.31
2023-03-06T23:01:15.203Z,98520.69
2023-03-06T23:03:44.655Z,98514.75
2023-03-06T23:06:26.857Z,98513.16
2023-03-06T23:09:02.591Z,98504.66
2023-03-06T23:11:30.284Z,98509.78
2023-03-06T23:13:57.506Z,98499.69
2023-03-06T23:16:24.272Z,98500.66
2023-03-06T23:18:52.706Z,98493.81
2023-03-06T23:21:21.516Z,98492.22
2023-03-06T23:23:49.908Z,98497.28
2023-03-06T23:26:18.297Z,98494.66
2023-03-06T23:28:45.026Z,98477.56
2023-03-06T23:31:17.773Z,98485.38
2023-03-06T23:33:44.439Z,98488.81
2023-03-06T23:36:13.374Z,98480.28
2023-03-06T23:38:40.641Z,98484.69
2023-03-06T23:41:10.839Z,98479.66
2023-03-06T23:43:37.378Z,98478.84
2023-03-06T23:46:04.725Z,98470.47
2023-03-06T23:48:31.535Z,98467.03
2023-03-06T23:50:58.218Z,98467.94
2023-03-06T23:53:25.334Z,98469.72
2023-03-06T23:55:52.559Z,98470.53
2023-03-06T23:58:19.756Z,98462.97
